sensor_id;sensor_type;location;lat;lon;timestamp;temperature;humidity
66401;HTU21D;53211;45.040;38.788;2022-10-30T00:00:42;5.93;87.30
66401;HTU21D;53211;45.040;38.788;2022-10-30T00:03:12;5.87;87.31
66401;HTU21D;53211;45.040;38.788;2022-10-30T00:05:43;5.84;87.44
66401;HTU21D;53211;45.040;38.788;2022-10-30T00:08:13;5.81;87.33
66401;HTU21D;53211;45.040;38.788;2022-10-30T00:10:40;5.78;87.29
66401;HTU21D;53211;45.040;38.788;2022-10-30T00:13:07;5.76;87.25
66401;HTU21D;53211;45.040;38.788;2022-10-30T00:15:34;5.74;87.28
66401;HTU21D;53211;45.040;38.788;2022-10-30T00:18:03;5.70;87.27
66401;HTU21D;53211;45.040;38.788;2022-10-30T00:20:29;5.68;87.44
66401;HTU21D;53211;45.040;38.788;2022-10-30T00:22:55;0.00;87.44
66401;HTU21D;53211;45.040;38.788;2022-10-30T00:25:21;5.66;87.64
66401;HTU21D;53211;45.040;38.788;2022-10-30T00:27:47;5.63;88.65
66401;HTU21D;53211;45.040;38.788;2022-10-30T00:30:13;5.62;88.35
66401;HTU21D;53211;45.040;38.788;2022-10-30T00:32:41;5.62;87.61
66401;HTU21D;53211;45.040;38.788;2022-10-30T00:35:10;5.61;87.44
66401;HTU21D;53211;45.040;38.788;2022-10-30T00:37:37;5.57;87.44
66401;HTU21D;53211;45.040;38.788;2022-10-30T00:40:04;5.55;87.31
66401;HTU21D;53211;45.040;38.788;2022-10-30T00:42:31;5.52;87.41
66401;HTU21D;53211;45.040;38.788;2022-10-30T00:44:58;5.51;87.35
66401;HTU21D;53211;45.040;38.788;2022-10-30T00:47:29;5.49;87.28
66401;HTU21D;53211;45.040;38.788;2022-10-30T00:52:51;5.46;87.39
66401;HTU21D;53211;45.040;38.788;2022-10-30T00:55:24;5.43;87.42
66401;HTU21D;53211;45.040;38.788;2022-10-30T00:57:51;5.42;87.43
66401;HTU21D;53211;45.040;38.788;2022-10-30T01:00:20;5.42;87.38
66401;HTU21D;53211;45.040;38.788;2022-10-30T01:02:47;5.39;87.37
66401;HTU21D;53211;45.040;38.788;2022-10-30T01:05:17;5.39;87.35
66401;HTU21D;53211;45.040;38.788;2022-10-30T01:07:45;5.39;87.35
66401;HTU21D;53211;45.040;38.788;2022-10-30T01:10:13;5.38;87.43
66401;HTU21D;53211;45.040;38.788;2022-10-30T01:12:39;5.36;87.40
66401;HTU21D;53211;45.040;38.788;2022-10-30T01:15:08;5.35;87.38
66401;HTU21D;53211;45.040;38.788;2022-10-30T01:20:44;5.32;87.44
66401;HTU21D;53211;45.040;38.788;2022-10-30T01:23:45;5.31;87.31
66401;HTU21D;53211;45.040;38.788;2022-10-30T01:38:09;0.00;87.59
66401;HTU21D;53211;45.040;38.788;2022-10-30T01:40:37;5.13;87.51
66401;HTU21D;53211;45.040;38.788;2022-10-30T01:43:03;5.12;87.39
66401;HTU21D;53211;45.040;38.788;2022-10-30T01:51:02;5.05;87.37
66401;HTU21D;53211;45.040;38.788;2022-10-30T02:01:55;5.01;87.34
66401;HTU21D;53211;45.040;38.788;2022-10-30T02:04:21;5.00;87.32
66401;HTU21D;53211;45.040;38.788;2022-10-30T02:06:49;4.97;87.38
66401;HTU21D;53211;45.040;38.788;2022-10-30T02:09:16;4.96;87.35
66401;HTU21D;53211;45.040;38.788;2022-10-30T02:11:48;4.93;87.42
66401;HTU21D;53211;45.040;38.788;2022-10-30T02:14:21;4.91;87.38
66401;HTU21D;53211;45.040;38.788;2022-10-30T02:16:50;4.90;87.49
66401;HTU21D;53211;45.040;38.788;2022-10-30T02:19:21;4.89;87.46
66401;HTU21D;53211;45.040;38.788;2022-10-30T02:21:56;4.88;87.45
66401;HTU21D;53211;45.040;38.788;2022-10-30T02:24:30;4.86;87.44
66401;HTU21D;53211;45.040;38.788;2022-10-30T02:26:56;4.83;87.57
66401;HTU21D;53211;45.040;38.788;2022-10-30T02:29:22;4.81;87.51
66401;HTU21D;53211;45.040;38.788;2022-10-30T02:31:48;4.80;87.49
66401;HTU21D;53211;45.040;38.788;2022-10-30T02:34:15;4.80;87.49
66401;HTU21D;53211;45.040;38.788;2022-10-30T02:36:42;4.80;87.52
66401;HTU21D;53211;45.040;38.788;2022-10-30T02:39:08;4.79;87.51
66401;HTU21D;53211;45.040;38.788;2022-10-30T02:41:35;4.79;87.51
66401;HTU21D;53211;45.040;38.788;2022-10-30T02:44:01;4.77;87.53
66401;HTU21D;53211;45.040;38.788;2022-10-30T02:46:28;4.79;87.49
66401;HTU21D;53211;45.040;38.788;2022-10-30T02:48:54;4.77;87.48
66401;HTU21D;53211;45.040;38.788;2022-10-30T02:51:20;4.77;87.48
66401;HTU21D;53211;45.040;38.788;2022-10-30T02:53:47;4.76;87.54
66401;HTU21D;53211;45.040;38.788;2022-10-30T02:56:14;4.74;87.53
66401;HTU21D;53211;45.040;38.788;2022-10-30T02:58:41;4.77;87.53
66401;HTU21D;53211;45.040;38.788;2022-10-30T03:01:13;4.80;87.61
66401;HTU21D;53211;45.040;38.788;2022-10-30T03:03:40;4.86;87.61
66401;HTU21D;53211;45.040;38.788;2022-10-30T03:06:12;4.88;87.50
66401;HTU21D;53211;45.040;38.788;2022-10-30T03:08:38;4.89;87.42
66401;HTU21D;53211;45.040;38.788;2022-10-30T03:11:10;4.88;87.42
66401;HTU21D;53211;45.040;38.788;2022-10-30T03:13:37;4.84;87.37
66401;HTU21D;53211;45.040;38.788;2022-10-30T03:16:08;4.84;87.35
66401;HTU21D;53211;45.040;38.788;2022-10-30T03:18:35;4.81;87.53
66401;HTU21D;53211;45.040;38.788;2022-10-30T03:21:09;4.80;87.44
66401;HTU21D;53211;45.040;38.788;2022-10-30T03:23:36;4.80;87.45
66401;HTU21D;53211;45.040;38.788;2022-10-30T03:26:02;4.79;87.43
66401;HTU21D;53211;45.040;38.788;2022-10-30T03:28:32;4.78;87.42
66401;HTU21D;53211;45.040;38.788;2022-10-30T03:30:59;4.76;87.43
66401;HTU21D;53211;45.040;38.788;2022-10-30T03:33:26;4.76;87.46
66401;HTU21D;53211;45.040;38.788;2022-10-30T03:35:51;4.74;87.50
66401;HTU21D;53211;45.040;38.788;2022-10-30T03:38:18;4.74;87.48
66401;HTU21D;53211;45.040;38.788;2022-10-30T03:40:45;4.73;87.49
66401;HTU21D;53211;45.040;38.788;2022-10-30T03:43:10;4.72;87.48
66401;HTU21D;53211;45.040;38.788;2022-10-30T03:45:36;0.00;87.49
66401;HTU21D;53211;45.040;38.788;2022-10-30T03:48:05;4.71;87.53
66401;HTU21D;53211;45.040;38.788;2022-10-30T03:50:31;4.68;87.51
66401;HTU21D;53211;45.040;38.788;2022-10-30T03:52:58;4.69;87.53
66401;HTU21D;53211;45.040;38.788;2022-10-30T03:55:25;4.69;87.54
66401;HTU21D;53211;45.040;38.788;2022-10-30T03:57:53;4.71;87.57
66401;HTU21D;53211;45.040;38.788;2022-10-30T04:00:20;4.68;87.62
66401;HTU21D;53211;45.040;38.788;2022-10-30T04:02:55;4.68;88.12
66401;HTU21D;53211;45.040;38.788;2022-10-30T04:05:24;4.67;87.65
66401;HTU21D;53211;45.040;38.788;2022-10-30T04:07:57;4.69;87.66
66401;HTU21D;53211;45.040;38.788;2022-10-30T04:10:24;4.69;87.76
66401;HTU21D;53211;45.040;38.788;2022-10-30T04:12:59;4.72;87.61
66401;HTU21D;53211;45.040;38.788;2022-10-30T04:15:25;4.73;87.59
66401;HTU21D;53211;45.040;38.788;2022-10-30T04:17:52;4.74;87.64
66401;HTU21D;53211;45.040;38.788;2022-10-30T04:20:21;4.74;88.05
66401;HTU21D;53211;45.040;38.788;2022-10-30T04:22:47;4.77;88.38
66401;HTU21D;53211;45.040;38.788;2022-10-30T04:25:18;4.80;88.26
66401;HTU21D;53211;45.040;38.788;2022-10-30T04:27:48;4.81;88.07
66401;HTU21D;53211;45.040;38.788;2022-10-30T04:30:14;4.86;88.17
66401;HTU21D;53211;45.040;38.788;2022-10-30T04:32:48;4.93;88.47
66401;HTU21D;53211;45.040;38.788;2022-10-30T04:35:15;4.96;88.31
66401;HTU21D;53211;45.040;38.788;2022-10-30T04:37:42;5.02;88.31
66401;HTU21D;53211;45.040;38.788;2022-10-30T04:40:08;5.10;88.36
66401;HTU21D;53211;45.040;38.788;2022-10-30T04:42:47;5.18;88.58
66401;HTU21D;53211;45.040;38.788;2022-10-30T04:45:14;5.25;88.60
66401;HTU21D;53211;45.040;38.788;2022-10-30T04:47:41;5.36;88.67
66401;HTU21D;53211;45.040;38.788;2022-10-30T04:50:08;5.45;88.47
66401;HTU21D;53211;45.040;38.788;2022-10-30T04:52:34;5.48;88.63
66401;HTU21D;53211;45.040;38.788;2022-10-30T04:55:00;5.56;88.76
66401;HTU21D;53211;45.040;38.788;2022-10-30T04:57:26;5.65;88.76
66401;HTU21D;53211;45.040;38.788;2022-10-30T04:59:53;5.78;88.84
66401;HTU21D;53211;45.040;38.788;2022-10-30T05:02:19;5.90;88.92
66401;HTU21D;53211;45.040;38.788;2022-10-30T05:04:45;6.01;88.99
66401;HTU21D;53211;45.040;38.788;2022-10-30T05:07:12;6.14;88.98
66401;HTU21D;53211;45.040;38.788;2022-10-30T05:09:38;6.28;88.86
66401;HTU21D;53211;45.040;38.788;2022-10-30T05:12:04;6.45;88.99
66401;HTU21D;53211;45.040;38.788;2022-10-30T05:14:37;6.64;89.15
66401;HTU21D;53211;45.040;38.788;2022-10-30T05:17:03;6.79;89.20
66401;HTU21D;53211;45.040;38.788;2022-10-30T05:19:29;6.97;89.26
66401;HTU21D;53211;45.040;38.788;2022-10-30T05:21:56;7.13;89.27
66401;HTU21D;53211;45.040;38.788;2022-10-30T05:24:22;7.31;89.32
66401;HTU21D;53211;45.040;38.788;2022-10-30T05:26:49;7.46;89.38
66401;HTU21D;53211;45.040;38.788;2022-10-30T05:29:15;7.61;89.32
66401;HTU21D;53211;45.040;38.788;2022-10-30T05:31:41;7.77;89.34
66401;HTU21D;53211;45.040;38.788;2022-10-30T05:34:10;7.90;89.39
66401;HTU21D;53211;45.040;38.788;2022-10-30T05:36:38;8.06;89.73
66401;HTU21D;53211;45.040;38.788;2022-10-30T05:39:05;8.19;90.44
66401;HTU21D;53211;45.040;38.788;2022-10-30T05:41:34;8.34;90.41
66401;HTU21D;53211;45.040;38.788;2022-10-30T05:44:01;8.48;91.30
66401;HTU21D;53211;45.040;38.788;2022-10-30T05:46:27;8.63;90.24
66401;HTU21D;53211;45.040;38.788;2022-10-30T05:48:56;8.76;89.96
66401;HTU21D;53211;45.040;38.788;2022-10-30T05:51:23;8.90;91.92
66401;HTU21D;53211;45.040;38.788;2022-10-30T05:53:54;9.04;93.08
66401;HTU21D;53211;45.040;38.788;2022-10-30T05:56:24;9.20;92.92
66401;HTU21D;53211;45.040;38.788;2022-10-30T05:58:50;9.35;91.85
66401;HTU21D;53211;45.040;38.788;2022-10-30T06:01:16;9.49;91.85
66401;HTU21D;53211;45.040;38.788;2022-10-30T06:03:49;9.63;91.04
66401;HTU21D;53211;45.040;38.788;2022-10-30T06:06:15;9.74;90.48
66401;HTU21D;53211;45.040;38.788;2022-10-30T06:08:42;9.86;90.26
66401;HTU21D;53211;45.040;38.788;2022-10-30T06:11:28;9.99;90.34
66401;HTU21D;53211;45.040;38.788;2022-10-30T06:13:57;10.13;90.50
66401;HTU21D;53211;45.040;38.788;2022-10-30T06:16:35;10.29;90.77
66401;HTU21D;53211;45.040;38.788;2022-10-30T06:19:22;10.49;90.98
66401;HTU21D;53211;45.040;38.788;2022-10-30T06:21:50;10.66;92.24
66401;HTU21D;53211;45.040;38.788;2022-10-30T06:24:42;10.94;91.66
66401;HTU21D;53211;45.040;38.788;2022-10-30T06:27:17;11.20;91.11
66401;HTU21D;53211;45.040;38.788;2022-10-30T06:29:43;11.44;91.09
66401;HTU21D;53211;45.040;38.788;2022-10-30T06:32:09;11.70;91.00
66401;HTU21D;53211;45.040;38.788;2022-10-30T06:34:36;11.98;92.13
66401;HTU21D;53211;45.040;38.788;2022-10-30T06:37:02;12.15;90.54
66401;HTU21D;53211;45.040;38.788;2022-10-30T06:39:34;12.28;90.07
66401;HTU21D;53211;45.040;38.788;2022-10-30T06:42:22;12.43;90.15
66401;HTU21D;53211;45.040;38.788;2022-10-30T06:45:10;12.58;91.24
66401;HTU21D;53211;45.040;38.788;2022-10-30T06:47:37;12.78;90.32
66401;HTU21D;53211;45.040;38.788;2022-10-30T06:50:04;12.96;90.26
66401;HTU21D;53211;45.040;38.788;2022-10-30T06:52:30;13.12;90.06
66401;HTU21D;53211;45.040;38.788;2022-10-30T06:54:57;13.29;89.58
66401;HTU21D;53211;45.040;38.788;2022-10-30T06:57:39;13.43;89.50
66401;HTU21D;53211;45.040;38.788;2022-10-30T07:00:24;13.58;88.69
66401;HTU21D;53211;45.040;38.788;2022-10-30T07:03:08;13.75;88.80
66401;HTU21D;53211;45.040;38.788;2022-10-30T07:05:34;13.90;88.04
66401;HTU21D;53211;45.040;38.788;2022-10-30T07:08:00;14.04;88.74
66401;HTU21D;53211;45.040;38.788;2022-10-30T07:10:29;14.15;88.47
66401;HTU21D;53211;45.040;38.788;2022-10-30T07:13:16;14.24;88.25
66401;HTU21D;53211;45.040;38.788;2022-10-30T07:15:53;14.37;87.89
66401;HTU21D;53211;45.040;38.788;2022-10-30T07:18:22;14.51;87.54
66401;HTU21D;53211;45.040;38.788;2022-10-30T07:20:55;14.62;87.30
66401;HTU21D;53211;45.040;38.788;2022-10-30T07:23:22;14.74;87.17
66401;HTU21D;53211;45.040;38.788;2022-10-30T07:25:50;14.85;85.74
66401;HTU21D;53211;45.040;38.788;2022-10-30T07:28:30;14.94;86.69
66401;HTU21D;53211;45.040;38.788;2022-10-30T07:31:17;15.02;81.53
66401;HTU21D;53211;45.040;38.788;2022-10-30T07:33:52;15.21;82.83
66401;HTU21D;53211;45.040;38.788;2022-10-30T07:36:36;15.40;82.13
66401;HTU21D;53211;45.040;38.788;2022-10-30T07:39:23;15.55;84.11
66401;HTU21D;53211;45.040;38.788;2022-10-30T07:42:12;15.63;80.58
66401;HTU21D;53211;45.040;38.788;2022-10-30T07:45:00;15.80;83.32
66401;HTU21D;53211;45.040;38.788;2022-10-30T07:47:41;15.91;81.63
66401;HTU21D;53211;45.040;38.788;2022-10-30T07:50:37;16.03;82.05
66401;HTU21D;53211;45.040;38.788;2022-10-30T07:53:03;16.12;82.65
66401;HTU21D;53211;45.040;38.788;2022-10-30T07:55:35;16.25;82.11
66401;HTU21D;53211;45.040;38.788;2022-10-30T07:58:27;16.39;80.42
66401;HTU21D;53211;45.040;38.788;2022-10-30T08:01:31;16.55;81.67
66401;HTU21D;53211;45.040;38.788;2022-10-30T08:04:09;16.66;80.02
66401;HTU21D;53211;45.040;38.788;2022-10-30T08:06:37;16.80;77.90
66401;HTU21D;53211;45.040;38.788;2022-10-30T08:09:03;16.98;74.87
66401;HTU21D;53211;45.040;38.788;2022-10-30T08:11:29;17.15;77.38
66401;HTU21D;53211;45.040;38.788;2022-10-30T08:13:57;17.28;69.42
66401;HTU21D;53211;45.040;38.788;2022-10-30T08:16:23;17.47;65.66
66401;HTU21D;53211;45.040;38.788;2022-10-30T08:18:50;17.66;70.48
66401;HTU21D;53211;45.040;38.788;2022-10-30T08:21:19;17.79;68.70
66401;HTU21D;53211;45.040;38.788;2022-10-30T08:23:59;17.96;67.46
66401;HTU21D;53211;45.040;38.788;2022-10-30T08:26:28;18.10;65.32
66401;HTU21D;53211;45.040;38.788;2022-10-30T08:28:55;18.24;66.62
66401;HTU21D;53211;45.040;38.788;2022-10-30T08:31:23;18.37;67.79
66401;HTU21D;53211;45.040;38.788;2022-10-30T08:34:01;18.46;62.21
66401;HTU21D;53211;45.040;38.788;2022-10-30T08:36:37;18.59;61.40
66401;HTU21D;53211;45.040;38.788;2022-10-30T08:39:03;18.69;59.93
66401;HTU21D;53211;45.040;38.788;2022-10-30T08:41:49;18.83;61.51
66401;HTU21D;53211;45.040;38.788;2022-10-30T08:44:17;19.02;63.90
66401;HTU21D;53211;45.040;38.788;2022-10-30T08:47:01;19.30;64.94
66401;HTU21D;53211;45.040;38.788;2022-10-30T08:49:28;19.65;59.35
66401;HTU21D;53211;45.040;38.788;2022-10-30T08:51:56;19.98;61.65
66401;HTU21D;53211;45.040;38.788;2022-10-30T08:54:22;20.22;57.23
66401;HTU21D;53211;45.040;38.788;2022-10-30T08:56:49;20.39;58.86
66401;HTU21D;53211;45.040;38.788;2022-10-30T08:59:15;20.47;62.21
66401;HTU21D;53211;45.040;38.788;2022-10-30T09:01:41;20.56;62.66
66401;HTU21D;53211;45.040;38.788;2022-10-30T09:04:16;20.60;57.41
66401;HTU21D;53211;45.040;38.788;2022-10-30T09:06:45;20.65;58.68
66401;HTU21D;53211;45.040;38.788;2022-10-30T09:09:43;20.78;56.23
66401;HTU21D;53211;45.040;38.788;2022-10-30T09:12:10;20.90;60.94
66401;HTU21D;53211;45.040;38.788;2022-10-30T09:14:42;21.03;57.64
66401;HTU21D;53211;45.040;38.788;2022-10-30T09:17:10;21.07;54.52
66401;HTU21D;53211;45.040;38.788;2022-10-30T09:19:37;21.04;53.38
66401;HTU21D;53211;45.040;38.788;2022-10-30T09:22:04;20.96;54.32
66401;HTU21D;53211;45.040;38.788;2022-10-30T09:24:32;20.87;54.44
66401;HTU21D;53211;45.040;38.788;2022-10-30T09:26:58;20.76;53.86
66401;HTU21D;53211;45.040;38.788;2022-10-30T09:29:26;20.75;55.45
66401;HTU21D;53211;45.040;38.788;2022-10-30T09:32:03;20.69;55.71
66401;HTU21D;53211;45.040;38.788;2022-10-30T09:34:38;20.64;54.25
66401;HTU21D;53211;45.040;38.788;2022-10-30T09:37:37;20.62;54.23
66401;HTU21D;53211;45.040;38.788;2022-10-30T09:40:07;20.54;54.49
66401;HTU21D;53211;45.040;38.788;2022-10-30T09:53:54;19.89;55.15
66401;HTU21D;53211;45.040;38.788;2022-10-30T09:56:26;19.80;55.13
66401;HTU21D;53211;45.040;38.788;2022-10-30T09:59:01;19.80;56.38
66401;HTU21D;53211;45.040;38.788;2022-10-30T10:04:25;19.61;56.50
66401;HTU21D;53211;45.040;38.788;2022-10-30T10:07:19;19.48;56.00
66401;HTU21D;53211;45.040;38.788;2022-10-30T10:09:58;19.40;56.26
66401;HTU21D;53211;45.040;38.788;2022-10-30T10:12:51;19.42;56.92
66401;HTU21D;53211;45.040;38.788;2022-10-30T10:17:48;19.35;56.97
66401;HTU21D;53211;45.040;38.788;2022-10-30T10:20:30;19.35;58.10
66401;HTU21D;53211;45.040;38.788;2022-10-30T10:22:59;19.37;58.51
66401;HTU21D;53211;45.040;38.788;2022-10-30T10:25:30;19.39;57.01
66401;HTU21D;53211;45.040;38.788;2022-10-30T10:28:18;19.46;57.84
66401;HTU21D;53211;45.040;38.788;2022-10-30T10:31:14;19.46;57.33
66401;HTU21D;53211;45.040;38.788;2022-10-30T10:34:03;19.45;57.10
66401;HTU21D;53211;45.040;38.788;2022-10-30T10:36:45;19.39;57.18
66401;HTU21D;53211;45.040;38.788;2022-10-30T10:39:46;19.43;57.00
66401;HTU21D;53211;45.040;38.788;2022-10-30T10:51:14;18.76;59.80
66401;HTU21D;53211;45.040;38.788;2022-10-30T10:56:19;18.43;62.68
66401;HTU21D;53211;45.040;38.788;2022-10-30T10:59:05;18.44;60.49
66401;HTU21D;53211;45.040;38.788;2022-10-30T11:01:39;18.59;58.76
66401;HTU21D;53211;45.040;38.788;2022-10-30T11:04:29;18.69;0.00
66401;HTU21D;53211;45.040;38.788;2022-10-30T11:06:56;18.82;58.49
66401;HTU21D;53211;45.040;38.788;2022-10-30T11:09:23;18.91;58.80
66401;HTU21D;53211;45.040;38.788;2022-10-30T11:11:53;18.85;57.57
66401;HTU21D;53211;45.040;38.788;2022-10-30T11:14:26;18.83;57.79
66401;HTU21D;53211;45.040;38.788;2022-10-30T11:19:37;18.73;58.37
66401;HTU21D;53211;45.040;38.788;2022-10-30T11:22:15;18.61;57.72
66401;HTU21D;53211;45.040;38.788;2022-10-30T11:24:43;18.47;57.56
66401;HTU21D;53211;45.040;38.788;2022-10-30T11:29:50;18.47;58.36
66401;HTU21D;53211;45.040;38.788;2022-10-30T11:32:19;18.48;58.70
66401;HTU21D;53211;45.040;38.788;2022-10-30T11:35:10;18.46;57.97
66401;HTU21D;53211;45.040;38.788;2022-10-30T11:37:41;18.53;58.34
66401;HTU21D;53211;45.040;38.788;2022-10-30T11:42:41;18.56;58.32
66401;HTU21D;53211;45.040;38.788;2022-10-30T11:47:50;18.54;58.33
66401;HTU21D;53211;45.040;38.788;2022-10-30T11:50:22;18.56;58.11
66401;HTU21D;53211;45.040;38.788;2022-10-30T11:52:53;18.53;58.35
66401;HTU21D;53211;45.040;38.788;2022-10-30T11:55:26;18.41;57.86
66401;HTU21D;53211;45.040;38.788;2022-10-30T11:57:56;18.38;58.95
66401;HTU21D;53211;45.040;38.788;2022-10-30T12:00:30;18.30;58.86
66401;HTU21D;53211;45.040;38.788;2022-10-30T12:02:58;18.26;58.87
66401;HTU21D;53211;45.040;38.788;2022-10-30T12:05:29;18.22;59.68
66401;HTU21D;53211;45.040;38.788;2022-10-30T12:08:18;18.15;60.06
66401;HTU21D;53211;45.040;38.788;2022-10-30T12:10:56;18.08;60.43
66401;HTU21D;53211;45.040;38.788;2022-10-30T12:13:23;17.98;60.38
66401;HTU21D;53211;45.040;38.788;2022-10-30T12:16:04;17.96;60.67
66401;HTU21D;53211;45.040;38.788;2022-10-30T12:18:31;17.90;60.72
66401;HTU21D;53211;45.040;38.788;2022-10-30T12:20:58;17.90;60.77
66401;HTU21D;53211;45.040;38.788;2022-10-30T12:23:26;17.83;60.77
66401;HTU21D;53211;45.040;38.788;2022-10-30T12:25:58;17.85;61.09
66401;HTU21D;53211;45.040;38.788;2022-10-30T12:28:27;17.84;61.21
66401;HTU21D;53211;45.040;38.788;2022-10-30T12:33:37;17.78;61.10
66401;HTU21D;53211;45.040;38.788;2022-10-30T12:36:09;17.70;60.65
66401;HTU21D;53211;45.040;38.788;2022-10-30T12:38:51;17.70;60.96
66401;HTU21D;53211;45.040;38.788;2022-10-30T12:41:30;17.67;61.28
66401;HTU21D;53211;45.040;38.788;2022-10-30T12:44:21;17.62;61.02
66401;HTU21D;53211;45.040;38.788;2022-10-30T12:47:06;17.58;61.21
66401;HTU21D;53211;45.040;38.788;2022-10-30T12:49:49;17.53;61.50
66401;HTU21D;53211;45.040;38.788;2022-10-30T12:52:34;17.50;61.96
66401;HTU21D;53211;45.040;38.788;2022-10-30T12:57:36;17.40;62.43
66401;HTU21D;53211;45.040;38.788;2022-10-30T13:00:12;17.32;62.71
66401;HTU21D;53211;45.040;38.788;2022-10-30T13:06:22;17.31;62.99
66401;HTU21D;53211;45.040;38.788;2022-10-30T13:13:58;17.05;64.55
66401;HTU21D;53211;45.040;38.788;2022-10-30T13:16:29;16.95;65.38
66401;HTU21D;53211;45.040;38.788;2022-10-30T13:19:00;16.91;70.00
66401;HTU21D;53211;45.040;38.788;2022-10-30T13:21:48;16.67;71.89
66401;HTU21D;53211;45.040;38.788;2022-10-30T13:24:27;16.69;73.04
66401;HTU21D;53211;45.040;38.788;2022-10-30T13:27:12;16.52;73.06
66401;HTU21D;53211;45.040;38.788;2022-10-30T13:32:31;16.01;76.17
66401;HTU21D;53211;45.040;38.788;2022-10-30T13:35:20;15.78;76.95
66401;HTU21D;53211;45.040;38.788;2022-10-30T13:51:31;14.59;83.36
66401;HTU21D;53211;45.040;38.788;2022-10-30T13:54:21;14.39;85.55
66401;HTU21D;53211;45.040;38.788;2022-10-30T13:56:49;14.28;87.22
66401;HTU21D;53211;45.040;38.788;2022-10-30T14:08:35;13.90;89.59
66401;HTU21D;53211;45.040;38.788;2022-10-30T14:11:06;13.89;89.40
66401;HTU21D;53211;45.040;38.788;2022-10-30T14:13:54;13.82;90.34
66401;HTU21D;53211;45.040;38.788;2022-10-30T14:16:42;13.79;91.79
66401;HTU21D;53211;45.040;38.788;2022-10-30T14:19:14;13.84;90.68
66401;HTU21D;53211;45.040;38.788;2022-10-30T14:22:00;13.80;91.59
66401;HTU21D;53211;45.040;38.788;2022-10-30T14:24:31;13.79;91.81
66401;HTU21D;53211;45.040;38.788;2022-10-30T14:37:16;13.82;92.27
66401;HTU21D;53211;45.040;38.788;2022-10-30T14:39:46;13.88;92.16
66401;HTU21D;53211;45.040;38.788;2022-10-30T14:48:06;13.98;92.05
66401;HTU21D;53211;45.040;38.788;2022-10-30T14:51:04;14.00;91.71
66401;HTU21D;53211;45.040;38.788;2022-10-30T14:53:58;14.04;90.90
66401;HTU21D;53211;45.040;38.788;2022-10-30T14:56:37;14.00;92.01
66401;HTU21D;53211;45.040;38.788;2022-10-30T15:07:25;13.97;91.87
66401;HTU21D;53211;45.040;38.788;2022-10-30T15:10:24;13.95;91.19
66401;HTU21D;53211;45.040;38.788;2022-10-30T15:15:38;13.89;90.83
66401;HTU21D;53211;45.040;38.788;2022-10-30T15:18:10;13.85;90.42
66401;HTU21D;53211;45.040;38.788;2022-10-30T15:20:40;13.81;92.61
66401;HTU21D;53211;45.040;38.788;2022-10-30T15:23:17;13.82;90.20
66401;HTU21D;53211;45.040;38.788;2022-10-30T15:25:50;13.81;90.29
66401;HTU21D;53211;45.040;38.788;2022-10-30T15:28:25;13.78;90.64
66401;HTU21D;53211;45.040;38.788;2022-10-30T15:33:43;13.77;89.89
66401;HTU21D;53211;45.040;38.788;2022-10-30T15:36:21;14.92;89.73
66401;HTU21D;53211;45.040;38.788;2022-10-30T15:39:10;13.75;91.87
66401;HTU21D;53211;45.040;38.788;2022-10-30T15:41:51;13.75;90.12
66401;HTU21D;53211;45.040;38.788;2022-10-30T15:44:39;13.75;89.03
66401;HTU21D;53211;45.040;38.788;2022-10-30T15:47:12;13.74;88.79
66401;HTU21D;53211;45.040;38.788;2022-10-30T15:49:41;13.73;89.76
66401;HTU21D;53211;45.040;38.788;2022-10-30T15:52:29;13.70;89.66
66401;HTU21D;53211;45.040;38.788;2022-10-30T15:54:59;13.71;88.08
66401;HTU21D;53211;45.040;38.788;2022-10-30T15:57:29;13.69;87.82
66401;HTU21D;53211;45.040;38.788;2022-10-30T15:59:59;13.70;87.59
66401;HTU21D;53211;45.040;38.788;2022-10-30T16:02:32;13.69;87.39
66401;HTU21D;53211;45.040;38.788;2022-10-30T16:04:59;13.68;87.28
66401;HTU21D;53211;45.040;38.788;2022-10-30T16:07:28;13.68;87.18
66401;HTU21D;53211;45.040;38.788;2022-10-30T16:09:57;13.68;87.01
66401;HTU21D;53211;45.040;38.788;2022-10-30T16:12:27;13.67;86.93
66401;HTU21D;53211;45.040;38.788;2022-10-30T16:14:54;13.66;86.93
66401;HTU21D;53211;45.040;38.788;2022-10-30T16:17:23;13.66;86.77
66401;HTU21D;53211;45.040;38.788;2022-10-30T16:19:52;13.66;86.65
66401;HTU21D;53211;45.040;38.788;2022-10-30T16:22:25;13.66;86.58
66401;HTU21D;53211;45.040;38.788;2022-10-30T16:24:52;13.66;86.53
66401;HTU21D;53211;45.040;38.788;2022-10-30T16:27:21;13.64;86.43
66401;HTU21D;53211;45.040;38.788;2022-10-30T16:29:58;13.64;86.32
66401;HTU21D;53211;45.040;38.788;2022-10-30T16:32:28;13.64;86.29
66401;HTU21D;53211;45.040;38.788;2022-10-30T16:34:59;13.60;86.05
66401;HTU21D;53211;45.040;38.788;2022-10-30T16:37:32;13.53;86.06
66401;HTU21D;53211;45.040;38.788;2022-10-30T16:40:11;13.44;86.12
66401;HTU21D;53211;45.040;38.788;2022-10-30T16:42:38;13.36;86.75
66401;HTU21D;53211;45.040;38.788;2022-10-30T16:47:43;13.30;0.00
66401;HTU21D;53211;45.040;38.788;2022-10-30T16:50:15;13.33;87.52
66401;HTU21D;53211;45.040;38.788;2022-10-30T16:52:42;13.35;88.95
66401;HTU21D;53211;45.040;38.788;2022-10-30T16:55:28;13.39;88.48
66401;HTU21D;53211;45.040;38.788;2022-10-30T16:57:57;13.40;88.47
66401;HTU21D;53211;45.040;38.788;2022-10-30T17:00:27;13.44;88.83
66401;HTU21D;53211;45.040;38.788;2022-10-30T17:02:55;13.45;87.31
66401;HTU21D;53211;45.040;38.788;2022-10-30T17:05:26;13.48;87.19
66401;HTU21D;53211;45.040;38.788;2022-10-30T17:08:01;13.49;87.37
66401;HTU21D;53211;45.040;38.788;2022-10-30T17:18:37;13.56;91.30
66401;HTU21D;53211;45.040;38.788;2022-10-30T17:21:05;13.61;89.18
66401;HTU21D;53211;45.040;38.788;2022-10-30T17:23:33;75.32;90.56
66401;HTU21D;53211;45.040;38.788;2022-10-30T17:26:09;13.62;91.86
66401;HTU21D;53211;45.040;38.788;2022-10-30T17:28:37;13.63;90.28
66401;HTU21D;53211;45.040;38.788;2022-10-30T17:34:15;13.62;90.37
66401;HTU21D;53211;45.040;38.788;2022-10-30T17:36:47;13.63;89.71
66401;HTU21D;53211;45.040;38.788;2022-10-30T17:39:14;13.63;89.40
66401;HTU21D;53211;45.040;38.788;2022-10-30T17:41:41;13.64;89.28
66401;HTU21D;53211;45.040;38.788;2022-10-30T17:44:17;13.64;89.25
66401;HTU21D;53211;45.040;38.788;2022-10-30T17:46:44;13.65;89.34
66401;HTU21D;53211;45.040;38.788;2022-10-30T17:49:28;13.65;89.05
66401;HTU21D;53211;45.040;38.788;2022-10-30T17:51:54;13.65;89.05
66401;HTU21D;53211;45.040;38.788;2022-10-30T17:54:20;13.62;91.47
66401;HTU21D;53211;45.040;38.788;2022-10-30T17:56:47;13.65;89.65
66401;HTU21D;53211;45.040;38.788;2022-10-30T17:59:14;13.67;89.38
66401;HTU21D;53211;45.040;38.788;2022-10-30T18:01:43;13.66;91.79
66401;HTU21D;53211;45.040;38.788;2022-10-30T18:04:15;13.69;89.26
66401;HTU21D;53211;45.040;38.788;2022-10-30T18:06:43;13.71;89.06
66401;HTU21D;53211;45.040;38.788;2022-10-30T18:09:09;13.74;89.14
66401;HTU21D;53211;45.040;38.788;2022-10-30T18:11:36;13.74;89.20